• Join FlightAware (Why Join?)
  • Login
  • US Flag 
09:06PM EST


 

Airport Tracker/Info


-or-


 

Live Flight TrackerFlight Track Log ✈ AFL150 ✈ 06-Mar-2014 ✈ UUEE / SVO - MUHA / HAV

Flight Track Log - Related Links

Times and Time Zones

All times are in EST time to prevent confusion due to time zone crossing. See the AFL150 flight status page for this flight to view local times or setup timezone preferences in your user account.

Time Position Orientation Groundspeed Altitude Reporting Facility
EST Latitude Longitude Course Direction KTS MPH feet Rate Location/Type
04:44AM 56.1890 37.1356 307° West  Level Estimated
04:45AM 56.2568 36.9707 307° West  Level Estimated
04:46AM 56.3245 36.8052 306° West  Level Estimated
04:47AM 56.3919 36.6391 306° West  Level Estimated
04:48AM 56.4592 36.4725 306° West  Level Estimated
04:49AM 56.5262 36.3052 306° West  Level Estimated
04:50AM 56.5929 36.1374 306° West  Level Estimated
04:51AM 56.6595 35.9690 306° West  Level Estimated
04:52AM 56.7258 35.7999 306° West  Level Estimated
04:53AM 56.7919 35.6303 305° West  Level Estimated
04:54AM 56.8569 35.4623 305° West  Level Estimated
04:55AM 56.9216 35.2938 305° West  Level Estimated
04:56AM 56.9862 35.1246 305° West  Level Estimated
04:57AM 57.0505 34.9548 305° West  Level Estimated
04:58AM 57.1146 34.7845 305° West  Level Estimated
04:59AM 57.1784 34.6136 305° West  Level Estimated
05:00AM 57.2420 34.4421 304° West  Level Estimated
05:01AM 57.3054 34.2700 304° West  Level Estimated
05:02AM 57.3685 34.0973 304° West  Level Estimated
05:03AM 57.4315 33.9240 304° West  Level Estimated
05:04AM 57.4941 33.7501 304° West  Level Estimated
05:05AM 57.5565 33.5756 304° West  Level Estimated
05:06AM 57.6187 33.4005 304° West  Level Estimated
05:07AM 57.6807 33.2248 303° West  Level Estimated
05:08AM 57.7424 33.0486 303° West  Level Estimated
05:09AM 57.8038 32.8717 303° West  Level Estimated
05:10AM 57.8651 32.6942 303° West  Level Estimated
05:11AM 57.9260 32.5161 303° West  Level Estimated
05:12AM 57.9867 32.3374 303° West  Level Estimated
05:13AM 58.0472 32.1581 303° West  Level Estimated
05:14AM 58.1074 31.9782 302° West  Level Estimated
05:15AM 58.1673 31.7977 302° West  Level Estimated
05:16AM 58.2270 31.6166 302° West  Level Estimated
05:17AM 58.2865 31.4348 302° West  Level Estimated
05:18AM 58.3457 31.2525 302° West  Level Estimated
05:19AM 58.4046 31.0695 302° West  Level Estimated
05:20AM 58.4632 30.8860 301° West  Level Estimated
05:21AM 58.5216 30.7018 301° West  Level Estimated
05:22AM 58.5798 30.5170 301° West  Level Estimated
05:23AM 58.6376 30.3316 301° West  Level Estimated
05:24AM 58.6952 30.1456 301° West  Level Estimated
05:25AM 58.7525 29.9590 301° West  Level Estimated
05:26AM 58.8096 29.7717 301° West  Level Estimated
05:27AM 58.8664 29.5839 300° West  Level Estimated
05:28AM 58.9229 29.3954 300° West  Level Estimated
05:29AM 58.9791 29.2063 300° West  Level Estimated
05:30AM 59.0351 29.0166 300° West  Level Estimated
05:31AM 59.0908 28.8263 300° West  Level Estimated
05:32AM 59.1462 28.6353 300° West  Level Estimated
05:33AM 59.2013 28.4438 299° West  Level Estimated
05:34AM 59.2562 28.2516 299° West  Level Estimated
05:35AM 59.3107 28.0588 299° West  Level Estimated
05:36AM 59.3650 27.8654 299° West  Level Estimated
05:37AM 59.4190 27.6713 299° West  Level Estimated
05:38AM 59.4727 27.4767 299° West  Level Estimated
05:39AM 59.5261 27.2814 298° West  Level Estimated
05:40AM 59.5792 27.0855 298° West  Level Estimated
05:41AM 59.6320 26.8890 298° West  Level Estimated
05:42AM 59.6845 26.6919 298° West  Level Estimated
05:43AM 59.7368 26.4942 298° West  Level Estimated
05:44AM 59.7887 26.2958 298° West  Level Estimated
05:45AM 59.8403 26.0968 297° West  Level Estimated
05:46AM 59.8916 25.8972 297° West  Level Estimated
05:47AM 59.9427 25.6970 297° West  Level Estimated
05:48AM 59.9934 25.4962 297° West  Level Estimated
05:49AM 60.0438 25.2948 297° West  Level Estimated
05:50AM 60.0939 25.0927 297° West  Level Estimated
05:51AM 60.1437 24.8901 296° West  Level Estimated
05:52AM 60.1932 24.6868 296° West  Level Estimated
05:53AM 60.2424 24.4829 296° West  Level Estimated
05:54AM 60.2912 24.2784 296° West  Level Estimated
05:55AM 60.3398 24.0733 296° West  Level Estimated
05:56AM 60.3880 23.8676 295° West  Level Estimated
05:57AM 60.4359 23.6612 295° West  Level Estimated
05:58AM 60.4835 23.4543 295° West  Level Estimated
05:59AM 60.5308 23.2468 295° West  Level Estimated
06:00AM 60.5778 23.0386 295° West  Level Estimated
06:01AM 60.6244 22.8299 295° West  Level Estimated
06:02AM 60.6707 22.6205 294° West  Level Estimated
06:03AM 60.7166 22.4106 294° West  Level Estimated
06:04AM 60.7623 22.2000 294° West  Level Estimated
06:05AM 60.8076 21.9889 294° West  Level Estimated
06:06AM 60.8526 21.7771 294° West  Level Estimated
06:07AM 60.8972 21.5648 293° West  Level Estimated
06:08AM 60.9415 21.3519 293° West  Level Estimated
06:09AM 60.9855 21.1383 293° West  Level Estimated
06:10AM 61.0291 20.9242 293° West  Level Estimated
06:11AM 61.0724 20.7095 293° West  Level Estimated
06:12AM 61.1154 20.4942 293° West  Level Estimated
06:13AM 61.1580 20.2783 292° West  Level Estimated
06:14AM 61.2003 20.0619 292° West  Level Estimated
06:15AM 61.2422 19.8449 292° West  Level Estimated
06:16AM 61.2838 19.6273 292° West  Level Estimated
06:17AM 61.3250 19.4091 292° West  Level Estimated
06:18AM 61.3659 19.1903 291° West  Level Estimated
06:19AM 61.4064 18.9710 291° West  Level Estimated
06:20AM 61.4465 18.7511 291° West  Level Estimated
06:21AM 61.4864 18.5306 291° West  Level Estimated
06:22AM 61.5258 18.3096 291° West  Level Estimated
06:23AM 61.5649 18.0880 290° West  Level Estimated
06:24AM 61.6036 17.8659 290° West  Level Estimated
06:25AM 61.6420 17.6432 290° West  Level Estimated
06:26AM 61.6800 17.4200 290° West  Level Estimated
06:27AM 61.7177 17.1962 290° West  Level Estimated
06:28AM 61.7550 16.9718 289° West  Level Estimated
06:29AM 61.7919 16.7470 289° West  Level Estimated
06:30AM 61.8284 16.5216 289° West  Level Estimated
06:31AM 61.8646 16.2956 289° West  Level Estimated
06:32AM 61.9004 16.0691 289° West  Level Estimated
06:33AM 61.9358 15.8421 288° West  Level Estimated
06:34AM 61.9709 15.6146 288° West  Level Estimated
06:35AM 62.0056 15.3865 288° West  Level Estimated
06:36AM 62.0399 15.1580 288° West  Level Estimated
06:37AM 62.0738 14.9289 288° West  Level Estimated
06:38AM 62.1074 14.6993 287° West  Level Estimated
06:39AM 62.1405 14.4692 287° West  Level Estimated
06:40AM 62.1733 14.2386 287° West  Level Estimated
06:41AM 62.2057 14.0075 287° West  Level Estimated
06:42AM 62.2377 13.7759 287° West  Level Estimated
06:43AM 62.2693 13.5438 286° West  Level Estimated
06:44AM 62.3006 13.3113 286° West  Level Estimated
06:45AM 62.3314 13.0782 286° West  Level Estimated
06:46AM 62.3619 12.8447 286° West  Level Estimated
06:47AM 62.3920 12.6107 286° West  Level Estimated
06:48AM 62.4216 12.3763 285° West  Level Estimated
06:49AM 62.4509 12.1413 285° West  Level Estimated
06:50AM 62.4798 11.9059 285° West  Level Estimated
06:51AM 62.5083 11.6701 285° West  Level Estimated
06:52AM 62.5364 11.4338 285° West  Level Estimated
06:53AM 62.5641 11.1971 284° West  Level Estimated
06:54AM 62.5914 10.9600 284° West  Level Estimated
06:55AM 62.6183 10.7224 284° West  Level Estimated
06:56AM 62.6447 10.4843 284° West  Level Estimated
06:57AM 62.6708 10.2459 284° West  Level Estimated
06:58AM 62.6965 10.0070 283° West  Level Estimated
06:59AM 62.7218 9.7677 283° West  Level Estimated
07:00AM 62.7466 9.5281 283° West  Level Estimated
07:01AM 62.7711 9.2880 283° West  Level Estimated
07:02AM 62.7951 9.0475 282° West  Level Estimated
07:03AM 62.8187 8.8067 282° West  Level Estimated
07:04AM 62.8420 8.5654 282° West  Level Estimated
07:05AM 62.8648 8.3238 282° West  Level Estimated
07:06AM 62.8872 8.0818 282° West  Level Estimated
07:07AM 62.9091 7.8394 281° West  Level Estimated
07:08AM 62.9307 7.5967 281° West  Level Estimated
07:09AM 62.9518 7.3536 281° West  Level Estimated
07:10AM 62.9726 7.1102 281° West  Level Estimated
07:11AM 62.9929 6.8664 280° West  Level Estimated
07:12AM 63.0127 6.6223 280° West  Level Estimated
07:13AM 63.0322 6.3779 280° West  Level Estimated
07:14AM 63.0513 6.1331 280° West  Level Estimated
07:15AM 63.0699 5.8880 280° West  Level Estimated
07:16AM 63.0881 5.6427 279° West  Level Estimated
07:17AM 63.1058 5.3970 279° West  Level Estimated
07:18AM 63.1232 5.1510 279° West  Level Estimated
07:19AM 63.1401 4.9047 279° West  Level Estimated
07:20AM 63.1566 4.6581 279° West  Level Estimated
07:21AM 63.1726 4.4113 278° West  Level Estimated
07:22AM 63.1883 4.1642 278° West  Level Estimated
07:23AM 63.2035 3.9168 278° West  Level Estimated
07:24AM 63.2183 3.6692 278° West  Level Estimated
07:25AM 63.2326 3.4213 277° West  Level Estimated
07:26AM 63.2465 3.1732 277° West  Level Estimated
07:27AM 63.2600 2.9248 277° West  Level Estimated
07:28AM 63.2730 2.6763 277° West  Level Estimated
07:29AM 63.2856 2.4275 277° West  Level Estimated
07:30AM 63.2978 2.1784 276° West  Level Estimated
07:31AM 63.3096 1.9292 276° West  Level Estimated
07:32AM 63.3209 1.6798 276° West  Level Estimated
07:33AM 63.3318 1.4302 276° West  Level Estimated
07:34AM 63.3422 1.1804 275° West  Level Estimated
07:35AM 63.3522 0.9304 275° West  Level Estimated
07:36AM 63.3618 0.6802 275° West  Level Estimated
07:37AM 63.3709 0.4299 275° West  Level Estimated
07:38AM 63.3796 0.1795 275° West  Level Estimated
07:39AM 63.3878 -0.0711 274° West  Level Estimated
07:40AM 63.3956 -0.3219 274° West  Level Estimated
07:41AM 63.4030 -0.5728 274° West  Level Estimated
07:42AM 63.4099 -0.8238 274° West  Level Estimated
07:43AM 63.4164 -1.0749 273° West  Level Estimated
07:44AM 63.4224 -1.3262 273° West  Level Estimated
07:45AM 63.4280 -1.5775 273° West  Level Estimated
07:46AM 63.4332 -1.8289 273° West  Level Estimated
07:47AM 63.4379 -2.0805 273° West  Level Estimated
07:48AM 63.4422 -2.3321 272° West  Level Estimated
07:49AM 63.4460 -2.5837 272° West  Level Estimated
07:50AM 63.4495 -2.8355 272° West  Level Estimated
07:51AM 63.4524 -3.0873 272° West  Level Estimated
07:52AM 63.4549 -3.3391 271° West  Level Estimated
07:53AM 63.4570 -3.5910 271° West  Level Estimated
07:54AM 63.4586 -3.8429 271° West  Level Estimated
07:55AM 63.4598 -4.0948 271° West  Level Estimated
07:56AM 63.4605 -4.3468 270° West  Level Estimated
07:57AM 63.4608 -4.5988 270° West  Level Estimated
07:58AM 63.4607 -4.8507 270° West  Level Estimated
07:59AM 63.4601 -5.1027 270° West  Level Estimated
08:00AM 63.4591 -5.3546 270° West  Level Estimated
08:01AM 63.4576 -5.6066 269° West  Level Estimated
08:02AM 63.4557 -5.8584 269° West  Level Estimated
08:03AM 63.4533 -6.1103 269° West  Level Estimated
08:04AM 63.4505 -6.3621 269° West  Level Estimated
08:05AM 63.4473 -6.6139 268° West  Level Estimated
08:06AM 63.4436 -6.8656 268° West  Level Estimated
08:07AM 63.4394 -7.1172 268° West  Level Estimated
08:08AM 63.4349 -7.3687 268° West  Level Estimated
08:09AM 63.4299 -7.6202 268° West  Level Estimated
08:10AM 63.4244 -7.8716 267° West  Level Estimated
08:11AM 63.4185 -8.1229 267° West  Level Estimated
08:12AM 63.4122 -8.3740 267° West  Level Estimated
08:13AM 63.4054 -8.6251 267° West  Level Estimated
08:14AM 63.3982 -8.8760 266° West  Level Estimated
08:15AM 63.3905 -9.1268 266° West  Level Estimated
08:16AM 63.3824 -9.3775 266° West  Level Estimated
08:17AM 63.3739 -9.6280 266° West  Level Estimated
08:18AM 63.3649 -9.8784 266° West  Level Estimated
08:19AM 63.3555 -10.1286 265° West  Level Estimated
08:20AM 63.3457 -10.3786 265° West  Level Estimated
08:21AM 63.3354 -10.6285 265° West  Level Estimated
08:22AM 63.3247 -10.8781 265° West  Level Estimated
08:23AM 63.3135 -11.1276 264° West  Level Estimated
08:24AM 63.3019 -11.3769 264° West  Level Estimated
08:25AM 63.2899 -11.6260 264° West  Level Estimated
08:26AM 63.2774 -11.8749 264° West  Level Estimated
08:27AM 63.2645 -12.1236 264° West  Level Estimated
08:28AM 63.2512 -12.3720 263° West  Level Estimated
08:29AM 63.2374 -12.6202 263° West  Level Estimated
08:30AM 63.2232 -12.8681 263° West  Level Estimated
08:31AM 63.2086 -13.1159 263° West  Level Estimated
08:32AM 63.1936 -13.3633 262° West  Level Estimated
08:33AM 63.1781 -13.6105 262° West  Level Estimated
08:34AM 63.1622 -13.8574 262° West  Level Estimated
08:35AM 63.1458 -14.1041 262° West  Level Estimated
08:36AM 63.1290 -14.3505 262° West  Level Estimated
08:37AM 63.1118 -14.5966 261° West  Level Estimated
08:38AM 63.0942 -14.8424 261° West  Level Estimated
08:39AM 63.0762 -15.0878 261° West  Level Estimated
08:40AM 63.0577 -15.3330 261° West  Level Estimated
08:41AM 63.0388 -15.5779 260° West  Level Estimated
08:42AM 63.0195 -15.8224 260° West  Level Estimated
08:43AM 62.9997 -16.0667 260° West  Level Estimated
08:44AM 62.9796 -16.3105 260° West  Level Estimated
08:45AM 62.9590 -16.5541 260° West  Level Estimated
08:46AM 62.9380 -16.7973 259° West  Level Estimated
08:47AM 62.9166 -17.0401 259° West  Level Estimated
08:48AM 62.8947 -17.2826 259° West  Level Estimated
08:49AM 62.8725 -17.5247 259° West  Level Estimated
08:50AM 62.8498 -17.7665 258° West  Level Estimated
08:51AM 62.8268 -18.0079 258° West  Level Estimated
08:52AM 62.8033 -18.2489 258° West  Level Estimated
08:53AM 62.7794 -18.4895 258° West  Level Estimated
08:54AM 62.7551 -18.7297 258° West  Level Estimated
08:55AM 62.7303 -18.9695 257° West  Level Estimated
08:56AM 62.7052 -19.2089 257° West  Level Estimated
08:57AM 62.6797 -19.4480 257° West  Level Estimated
08:58AM 62.6537 -19.6865 257° West  Level Estimated
08:59AM 62.6274 -19.9247 257° West  Level Estimated
09:00AM 62.6006 -20.1624 256° West  Level Estimated
09:01AM 62.5735 -20.3998 256° West  Level Estimated
09:02AM 62.5459 -20.6366 256° West  Level Estimated
09:03AM 62.5180 -20.8731 256° West  Level Estimated
09:04AM 62.4896 -21.1091 256° West  Level Estimated
09:05AM 62.4609 -21.3446 255° West  Level Estimated
09:06AM 62.4317 -21.5797 255° West  Level Estimated
09:07AM 62.4022 -21.8143 255° West  Level Estimated
09:08AM 62.3723 -22.0484 255° West  Level Estimated
09:09AM 62.3419 -22.2821 254° West  Level Estimated
09:10AM 62.3112 -22.5153 254° West  Level Estimated
09:11AM 62.2801 -22.7481 254° West  Level Estimated
09:12AM 62.2486 -22.9803 254° West  Level Estimated
09:13AM 62.2167 -23.2121 254° West  Level Estimated
09:14AM 62.1845 -23.4433 253° West  Level Estimated
09:15AM 62.1518 -23.6741 253° West  Level Estimated
09:16AM 62.1188 -23.9044 253° West  Level Estimated
09:17AM 62.0854 -24.1341 253° West  Level Estimated
09:18AM 62.0516 -24.3634 253° West  Level Estimated
09:19AM 62.0174 -24.5921 252° West  Level Estimated
09:20AM 61.9828 -24.8204 252° West  Level Estimated
09:21AM 61.9479 -25.0481 252° West  Level Estimated
09:22AM 61.9126 -25.2753 252° West  Level Estimated
09:23AM 61.8769 -25.5019 252° West  Level Estimated
09:24AM 61.8409 -25.7281 251° West  Level Estimated
09:25AM 61.8045 -25.9537 251° West  Level Estimated
09:26AM 61.7677 -26.1787 251° West  Level Estimated
09:27AM 61.7305 -26.4032 251° West  Level Estimated
09:28AM 61.6930 -26.6272 251° West  Level Estimated
09:29AM 61.6551 -26.8506 250° West  Level Estimated
09:30AM 61.6169 -27.0735 250° West  Level Estimated
09:31AM 61.5782 -27.2959 250° West  Level Estimated
09:32AM 61.5393 -27.5176 250° West  Level Estimated
09:33AM 61.4999 -27.7388 250° West  Level Estimated
09:34AM 61.4603 -27.9595 249° West  Level Estimated
09:35AM 61.4202 -28.1796 249° West  Level Estimated
09:36AM 61.3798 -28.3991 249° West  Level Estimated
09:37AM 61.3391 -28.6180 249° West  Level Estimated
09:38AM 61.2980 -28.8364 249° West  Level Estimated
09:39AM 61.2565 -29.0542 248° West  Level Estimated
09:40AM 61.2147 -29.2715 248° West  Level Estimated
09:41AM 61.1726 -29.4881 248° West  Level Estimated
09:42AM 61.1301 -29.7042 248° West  Level Estimated
09:43AM 61.0872 -29.9197 248° West  Level Estimated
09:44AM 61.0440 -30.1346 248° West  Level Estimated
09:45AM 61.0005 -30.3489 247° West  Level Estimated
09:46AM 60.9567 -30.5626 247° West  Level Estimated
09:47AM 60.9125 -30.7758 247° West  Level Estimated
09:48AM 60.8679 -30.9883 247° West  Level Estimated
09:49AM 60.8231 -31.2003 247° West  Level Estimated
09:50AM 60.7779 -31.4116 246° West  Level Estimated
09:51AM 60.7323 -31.6224 246° West  Level Estimated
09:52AM 60.6865 -31.8325 246° West  Level Estimated
09:53AM 60.6403 -32.0421 246° West  Level Estimated
09:54AM 60.5938 -32.2510 246° West  Level Estimated
09:55AM 60.5470 -32.4594 246° West  Level Estimated
09:56AM 60.4998 -32.6671 245° Southwest  Level Estimated
09:57AM 60.4523 -32.8743 245° Southwest  Level Estimated
09:58AM 60.4045 -33.0808 245° Southwest  Level Estimated
09:59AM 60.3564 -33.2867 245° Southwest  Level Estimated
10:00AM 60.3079 -33.4921 245° Southwest  Level Estimated
10:01AM 60.2592 -33.6968 244° Southwest  Level Estimated
10:02AM 60.2101 -33.9009 244° Southwest  Level Estimated
10:03AM 60.1607 -34.1044 244° Southwest  Level Estimated
10:04AM 60.1110 -34.3072 244° Southwest  Level Estimated
10:05AM 60.0610 -34.5095 244° Southwest  Level Estimated
10:06AM 60.0107 -34.7111 244° Southwest  Level Estimated
10:07AM 59.9601 -34.9122 243° Southwest  Level Estimated
10:08AM 59.9092 -35.1126 243° Southwest  Level Estimated
10:09AM 59.8580 -35.3124 243° Southwest  Level Estimated
10:10AM 59.8064 -35.5116 243° Southwest  Level Estimated
10:11AM 59.7546 -35.7101 243° Southwest  Level Estimated
10:12AM 59.7025 -35.9081 243° Southwest  Level Estimated
10:13AM 59.6501 -36.1054 242° Southwest  Level Estimated
10:14AM 59.5973 -36.3021 242° Southwest  Level Estimated
10:15AM 59.5443 -36.4982 242° Southwest  Level Estimated
10:16AM 59.4910 -36.6937 242° Southwest  Level Estimated
10:17AM 59.4374 -36.8888 242° Southwest  Level Estimated
10:18AM 59.3834 -37.0833 241° Southwest  Level Estimated
10:19AM 59.3292 -37.2772 241° Southwest  Level Estimated
10:20AM 59.2746 -37.4705 241° Southwest  Level Estimated
10:21AM 59.2198 -37.6631 241° Southwest  Level Estimated
10:22AM 59.1647 -37.8551 241° Southwest  Level Estimated
10:23AM 59.1093 -38.0465 241° Southwest  Level Estimated
10:24AM 59.0537 -38.2373 240° Southwest  Level Estimated
10:25AM 58.9977 -38.4275 240° Southwest  Level Estimated
10:26AM 58.9415 -38.6170 240° Southwest  Level Estimated
10:27AM 58.8850 -38.8060 240° Southwest  Level Estimated
10:28AM 58.8282 -38.9943 240° Southwest  Level Estimated
10:29AM 58.7712 -39.1819 240° Southwest  Level Estimated
10:30AM 58.7139 -39.3690 240° Southwest  Level Estimated
10:31AM 58.6563 -39.5555 239° Southwest  Level Estimated
10:32AM 58.5984 -39.7413 239° Southwest  Level Estimated
10:33AM 58.5403 -39.9266 239° Southwest  Level Estimated
10:34AM 58.4819 -40.1112 239° Southwest  Level Estimated
10:35AM 58.4233 -40.2952 239° Southwest  Level Estimated
10:36AM 58.3644 -40.4785 239° Southwest  Level Estimated
10:37AM 58.3052 -40.6613 238° Southwest  Level Estimated
10:38AM 58.2458 -40.8435 238° Southwest  Level Estimated
10:39AM 58.1861 -41.0250 238° Southwest  Level Estimated
10:40AM 58.1261 -41.2060 238° Southwest  Level Estimated
10:41AM 58.0659 -41.3863 238° Southwest  Level Estimated
10:42AM 58.0054 -41.5660 238° Southwest  Level Estimated
10:43AM 57.9447 -41.7451 237° Southwest  Level Estimated
10:44AM 57.8838 -41.9236 237° Southwest  Level Estimated
10:45AM 57.8226 -42.1016 237° Southwest  Level Estimated
10:46AM 57.7611 -42.2789 237° Southwest  Level Estimated
10:47AM 57.6994 -42.4556 237° Southwest  Level Estimated
10:48AM 57.6374 -42.6316 237° Southwest  Level Estimated
10:49AM 57.5752 -42.8071 237° Southwest  Level Estimated
10:50AM 57.5128 -42.9820 236° Southwest  Level Estimated
10:50AM 63.7167 -54.8500 236° Southwest 290 334 36,000  Level Gander Center
10:51AM 57.4501 -43.1563 236° Southwest  Level Estimated
10:51AM 63.6500 -55.0833 237° Southwest 430 495 36,000  Level Gander Center
10:52AM 57.3872 -43.3300 236° Southwest  Level Estimated
10:52AM 63.5833 -55.3333 239° Southwest 460 529 36,000  Level Gander Center
10:53AM 57.3240 -43.5031 236° Southwest  Level Estimated
10:53AM 63.5000 -55.5667 231° Southwest 460 529 36,000  Level Gander Center
10:54AM 57.2607 -43.6756 236° Southwest  Level Estimated
10:54AM 63.4333 -55.8000 238° Southwest 450 518 36,000  Level Gander Center
10:55AM 57.1970 -43.8475 236° Southwest  Level Estimated
10:55AM 63.3667 -56.0333 238° Southwest 480 552 36,000  Level Gander Center
10:56AM 57.1331 -44.0188 236° Southwest  Level Estimated
10:57AM 63.2167 -56.4667 233° Southwest 460 529 36,000  Level Gander Center
10:58AM 63.1667 -56.6667 241° Southwest 450 518 36,000  Level Gander Center
10:59AM 63.0833 -56.8833 230° Southwest 450 518 36,000  Level Gander Center
11:00AM 63.0167 -57.1167 238° Southwest 460 529 36,000  Level Gander Center
11:01AM 62.9333 -57.3500 232° Southwest 450 518 36,000  Level Gander Center
11:02AM 62.8500 -57.5833 232° Southwest 460 529 36,000  Level Gander Center
11:03AM 62.7833 -57.8000 236° Southwest 450 518 36,000  Level Gander Center
11:04AM 62.7000 -58.0333 232° Southwest 470 541 36,000  Level Gander Center
11:05AM 62.6167 -58.2500 230° Southwest 470 541 36,000  Level Gander Center
11:06AM 62.5500 -58.4833 238° Southwest 460 529 36,000  Level Gander Center
11:07AM 62.4667 -58.6667 226° Southwest 460 529 36,000  Level Gander Center
11:08AM 62.4000 -58.8833 236° Southwest 460 529 36,000  Level Gander Center
11:09AM 62.3167 -59.1000 230° Southwest 460 529 36,000  Level Gander Center
11:10AM 62.2500 -59.3167 237° Southwest 460 529 36,000  Level Gander Center
11:11AM 62.1667 -59.5500 233° Southwest 450 518 36,000  Level Gander Center
11:12AM 62.0833 -59.7667 231° Southwest 460 529 36,000  Level Gander Center
11:13AM 62.0000 -59.9333 223° Southwest 460 529 36,000  Level Gander Center
11:14AM 61.9167 -60.1500 231° Southwest 460 529 36,000  Level Gander Center
11:15AM 61.8333 -60.3667 231° Southwest 450 518 36,000  Level Gander Center
11:16AM 61.7667 -60.5833 237° Southwest 460 529 36,000  Level Gander Center
11:17AM 61.6833 -60.8000 231° Southwest 460 529 36,000  Level Gander Center
11:18AM 61.6000 -61.0000 229° Southwest 450 518 36,000  Level Gander Center
11:19AM 61.5167 -61.1833 226° Southwest 460 529 36,000  Level Gander Center
11:20AM 61.4333 -61.3833 229° Southwest 460 529 36,000  Level Gander Center
11:21AM 61.3500 -61.6000 231° Southwest 460 529 36,000  Level Gander Center
11:22AM 61.2667 -61.8333 233° Southwest 470 541 36,000  Level Gander Center
11:23AM 61.1833 -62.0333 229° Southwest 460 529 36,000  Level Gander Center
11:24AM 61.1000 -62.2167 227° Southwest 460 529 36,000  Level Gander Center
11:25AM 61.0167 -62.4167 229° Southwest 460 529 36,000  Level Gander Center
11:26AM 60.9333 -62.6167 229° Southwest 460 529 36,000  Level Gander Center
11:27AM 60.8333 -62.8167 224° Southwest 460 529 36,000  Level Gander Center
11:28AM 60.7667 -63.0500 240° Southwest 460 529 36,000  Level Gander Center
11:29AM 60.6667 -63.2167 219° Southwest 460 529 36,000  Level Gander Center
11:30AM 60.6000 -63.4167 236° Southwest 460 529 36,000  Level Gander Center
11:31AM 60.5167 -63.6167 230° Southwest 460 529 36,000  Level Gander Center
11:32AM 60.4333 -63.8000 227° Southwest 460 529 36,000  Level Gander Center
11:33AM 60.3333 -63.9667 220° Southwest 460 529 36,000  Level Gander Center
11:34AM 60.2500 -64.1667 230° Southwest 460 529 36,000  Level Gander Center
11:35AM 60.1667 -64.3500 228° Southwest 460 529 36,000  Level Gander Center
11:36AM 60.0833 -64.5500 230° Southwest 450 518 36,000  Level Gander Center
11:37AM 59.9833 -64.7333 223° Southwest 450 518 36,000  Level Gander Center
11:38AM 59.9000 -64.8833 222° Southwest 440 506 36,000  Level Montreal Center
11:39AM 59.8167 -65.0333 222° Southwest 440 506 36,000  Level Montreal Center
11:40AM 59.7167 -65.2333 225° Southwest 440 506 36,000  Level Montreal Center
11:41AM 59.6333 -65.4000 225° Southwest 440 506 36,000  Level Montreal Center
11:42AM 59.5667 -65.5833 234° Southwest 440 506 36,000  Level Montreal Center
11:43AM 59.4833 -65.7500 225° Southwest 450 518 36,000  Level Montreal Center
11:44AM 59.3833 -65.9333 223° Southwest 440 506 36,000  Level Montreal Center
11:45AM 59.3000 -66.1000 226° Southwest 440 506 36,000  Level Montreal Center
11:46AM 59.2167 -66.2833 228° Southwest 440 506 36,000  Level Montreal Center
11:47AM 59.1333 -66.4833 231° Southwest 440 506 36,000  Level Gander Center
11:48AM 59.0500 -66.6667 229° Southwest 450 518 36,000  Level Gander Center
11:49AM 58.9500 -66.8333 221° Southwest 440 506 36,000  Level Gander Center
11:50AM 58.8833 -66.9833 229° Southwest 450 518 36,000  Level Gander Center
11:51AM 58.7833 -67.1667 224° Southwest 450 518 36,000  Level Gander Center
11:52AM 58.7000 -67.3500 229° Southwest 450 518 36,000  Level Gander Center
11:53AM 58.6167 -67.5000 223° Southwest 450 518 36,000  Level Gander Center
11:54AM 58.5167 -67.6667 221° Southwest 450 518 36,000  Level Gander Center
11:55AM 58.4333 -67.8500 229° Southwest 460 529 36,000  Level Gander Center
11:56AM 58.3500 -67.9833 220° Southwest 460 529 36,000  Level Gander Center
11:57AM 58.2667 -68.1667 229° Southwest 460 529 36,000  Level Gander Center
11:58AM 58.1667 -68.3333 221° Southwest 470 541 36,000  Level Gander Center
11:59AM 58.1000 -68.4167 213° Southwest 510 587 36,000  Level Montreal Center
12:00PM 57.9667 -68.5667 211° Southwest 450 518 36,000  Level Montreal Center
12:01PM 57.8833 -68.7167 224° Southwest 450 518 36,000  Level Montreal Center
12:02PM 57.7833 -68.8167 208° Southwest 440 506 36,000  Level Montreal Center
12:03PM 57.6833 -68.9667 219° Southwest 450 518 36,000  Level Montreal Center
12:04PM 57.5833 -69.1167 219° Southwest 450 518 36,000  Level Montreal Center
12:05PM 57.4667 -69.2333 208° Southwest 450 518 36,000  Level Montreal Center
12:06PM 57.3667 -69.3500 212° Southwest 450 518 36,000  Level Montreal Center
12:07PM 57.2667 -69.4500 208° Southwest 440 506 36,000  Level Montreal Center
12:08PM 57.1500 -69.6000 215° Southwest 440 506 36,000  Level Montreal Center
12:09PM 57.0500 -69.7000 209° Southwest 440 506 36,000  Level Montreal Center
12:10PM 56.9500 -69.8167 212° Southwest 450 518 36,000  Level Montreal Center
12:11PM 56.8333 -69.9333 209° Southwest 450 518 36,000  Level Montreal Center
12:12PM 56.7333 -70.0667 216° Southwest 450 518 36,000  Level Montreal Center
12:13PM 56.6000 -70.1833 206° Southwest 450 518 36,000  Level Montreal Center
12:14PM 56.5167 -70.2833 214° Southwest 450 518 36,000  Level Montreal Center
12:15PM 56.4000 -70.4167 212° Southwest 440 506 36,000  Level Montreal Center
12:16PM 56.2833 -70.5333 209° Southwest 440 506 36,000  Level Montreal Center
12:17PM 56.1833 -70.6333 209° Southwest 440 506 36,000  Level Montreal Center
12:18PM 56.0667 -70.7500 209° Southwest 440 506 36,000  Level Montreal Center
12:19PM 55.9833 -70.8833 222° Southwest 440 506 36,000  Level Montreal Center
12:20PM 55.8667 -70.9500 198° South 450 518 36,000  Level Montreal Center
12:21PM 55.7500 -71.0833 213° Southwest 450 518 36,000  Level Montreal Center
12:22PM 55.6333 -71.1833 206° Southwest 440 506 36,000  Level Montreal Center
12:23PM 55.5333 -71.2833 210° Southwest 440 506 36,000  Level Montreal Center
12:24PM 55.4333 -71.4000 214° Southwest 440 506 36,000  Level Montreal Center
12:25PM 55.3333 -71.5167 214° Southwest 440 506 36,000  Level Montreal Center
12:26PM 55.2167 -71.6167 206° Southwest 450 518 36,000  Level Montreal Center
12:27PM 55.1167 -71.7167 210° Southwest 450 518 36,000  Level Montreal Center
12:28PM 55.0000 -71.8167 206° Southwest 450 518 36,000  Level Montreal Center
12:29PM 54.8833 -71.9500 213° Southwest 450 518 36,000  Level Montreal Center
12:30PM 54.8000 -72.0500 215° Southwest 440 506 36,000  Level Montreal Center
12:31PM 54.6833 -72.1500 206° Southwest 440 506 36,000  Level Montreal Center
12:32PM 54.5667 -72.2500 206° Southwest 440 506 36,000  Level Montreal Center
12:33PM 54.4500 -72.3667 210° Southwest 450 518 36,000  Level Montreal Center
12:34PM 54.3500 -72.4667 210° Southwest 450 518 36,000  Level Montreal Center
12:35PM 54.2333 -72.5667 207° Southwest 450 518 36,000  Level Montreal Center
12:36PM 54.1167 -72.6833 210° Southwest 450 518 36,000  Level Montreal Center
12:37PM 54.0167 -72.7833 210° Southwest 450 518 36,000  Level Montreal Center
12:38PM 53.9000 -72.8833 207° Southwest 450 518 36,000  Level Montreal Center
12:39PM 53.7833 -72.9667 203° Southwest 450 518 36,000  Level Montreal Center
12:40PM 53.7000 -73.0833 220° Southwest 450 518 36,000  Level Montreal Center
12:41PM 53.5833 -73.1833 207° Southwest 450 518 36,000  Level Montreal Center
12:42PM 53.4667 -73.2833 207° Southwest 450 518 36,000  Level Montreal Center
12:43PM 53.3667 -73.3667 206° Southwest 450 518 36,000  Level Montreal Center
12:44PM 53.2500 -73.4833 211° Southwest 450 518 36,000  Level Montreal Center
12:45PM 53.1333 -73.5833 207° Southwest 450 518 36,000  Level Montreal Center
12:46PM 53.0167 -73.6667 203° Southwest 450 518 36,000  Level Montreal Center
12:47PM 52.9000 -73.7833 211° Southwest 450 518 36,000  Level Montreal Center
12:48PM 52.8000 -73.8833 211° Southwest 450 518 36,000  Level Montreal Center
12:49PM 52.6833 -73.9667 203° Southwest 450 518 36,000  Level Montreal Center
12:50PM 52.5667 -74.0500 203° Southwest 450 518 36,000  Level Montreal Center
12:51PM 52.4667 -74.1667 215° Southwest 450 518 36,000  Level Montreal Center
12:52PM 52.3500 -74.2500 204° Southwest 450 518 36,000  Level Montreal Center
12:53PM 52.2333 -74.3500 208° Southwest 450 518 36,000  Level Montreal Center
12:54PM 52.1333 -74.4333 207° Southwest 440 506 36,000  Level Montreal Center
12:55PM 52.0167 -74.5500 212° Southwest 460 529 36,000  Level Montreal Center
12:56PM 51.9000 -74.6333 204° Southwest 450 518 36,000  Level Montreal Center
12:57PM 51.8000 -74.7167 207° Southwest 450 518 36,000  Level Montreal Center
12:58PM 51.6667 -74.8167 205° Southwest 450 518 36,000  Level Montreal Center
12:59PM 51.5667 -74.9167 212° Southwest 450 518 36,000  Level Montreal Center
01:00PM 51.4500 -75.0000 204° Southwest 450 518 36,000  Level Montreal Center
01:01PM 51.3333 -75.1000 208° Southwest 450 518 36,000  Level Montreal Center
01:02PM 51.2333 -75.1833 208° Southwest 450 518 36,000  Level Montreal Center
01:03PM 51.1167 -75.2667 204° Southwest 450 518 36,000  Level Montreal Center
01:04PM 51.0000 -75.3500 204° Southwest 450 518 36,000  Level Montreal Center
01:05PM 50.8833 -75.4667 212° Southwest 450 518 36,000  Level Montreal Center
01:06PM 50.7833 -75.5333 203° Southwest 450 518 36,000  Level Montreal Center
01:07PM 50.6667 -75.6167 204° Southwest 450 518 36,000  Level Montreal Center
01:08PM 50.5500 -75.7333 212° Southwest 450 518 36,000  Level Montreal Center
01:09PM 50.4333 -75.8000 200° South 450 518 36,000  Level Montreal Center
01:10PM 50.3333 -75.8833 208° Southwest 450 518 36,000  Level Montreal Center
01:11PM 50.2167 -76.0000 213° Southwest 450 518 36,000  Level Montreal Center
01:12PM 50.1000 -76.0667 200° South 450 518 36,000  Level Montreal Center
01:13PM 49.9833 -76.1500 205° Southwest 450 518 36,000  Level Montreal Center
01:14PM 49.8667 -76.2500 209° Southwest 450 518 36,000  Level Montreal Center
01:15PM 49.7500 -76.3333 205° Southwest 450 518 36,000  Level Montreal Center
01:16PM 49.6333 -76.4000 200° South 450 518 36,000  Level Montreal Center
01:17PM 49.5167 -76.4833 205° Southwest 450 518 36,000  Level Montreal Center
01:18PM 49.4000 -76.5833 209° Southwest 460 529 36,000  Level Montreal Center
01:19PM 49.3000 -76.6667 209° Southwest 450 518 36,000  Level Montreal Center
01:20PM 49.1833 -76.7333 200° South 460 529 36,000  Level Montreal Center
01:21PM 49.0667 -76.8333 209° Southwest 450 518 36,000  Level Montreal Center
01:22PM 48.9667 -76.9167 209° Southwest 450 518 36,000  Level Montreal Center
01:23PM 48.8500 -76.9833 201° Southwest 460 529 36,000  Level Montreal Center
01:24PM 48.7333 -77.0833 209° Southwest 450 518 36,000  Level Montreal Center
01:25PM 48.6000 -77.1667 202° Southwest 460 529 36,000  Level Montreal Center
01:26PM 48.4833 -77.2333 201° Southwest 450 518 36,000  Level Montreal Center
01:27PM 48.3833 -77.3000 204° Southwest 460 529 36,000  Level Montreal Center
01:28PM 48.2667 -77.4000 210° Southwest 450 518 36,000  Level Montreal Center
01:29PM 48.1500 -77.4833 205° Southwest 450 518 36,000  Level Montreal Center
01:30PM 48.0333 -77.5500 201° Southwest 450 518 36,000  Level Montreal Center
01:31PM 47.9167 -77.6500 210° Southwest 450 518 36,000  Level Montreal Center
01:32PM 47.8167 -77.7167 204° Southwest 460 529 36,000  Level Montreal Center
01:33PM 47.6833 -77.7833 199° South 450 518 36,000  Level Montreal Center
01:34PM 47.5667 -77.8833 210° Southwest 450 518 36,000  Level Montreal Center
01:35PM 47.4667 -77.9500 204° Southwest 450 518 36,000  Level Montreal Center
01:36PM 47.3333 -78.0500 207° Southwest 450 518 36,000  Level Montreal Center
01:37PM 47.2333 -78.1167 204° Southwest 450 518 36,000  Level Montreal Center
01:38PM 47.1167 -78.1833 201° Southwest 450 518 36,000  Level Montreal Center
01:39PM 47.0000 -78.2500 201° Southwest 450 518 36,000  Level Montreal Center
01:40PM 46.9000 -78.3500 214° Southwest 450 518 36,000  Level Montreal Center
01:40PM 46.7833 -78.3667 186° South 450 518 36,000  Level Toronto Center
01:41PM 46.6833 -78.4333 205° Southwest 450 518 36,000  Level Toronto Center
01:42PM 46.5667 -78.5167 206° Southwest 450 518 36,000  Level Toronto Center
01:43PM 46.4667 -78.5833 205° Southwest 450 518 36,000  Level Toronto Center
01:44PM 46.3333 -78.6667 203° Southwest 450 518 36,000  Level Toronto Center
01:45PM 46.2333 -78.7333 205° Southwest 450 518 36,000  Level Toronto Center
01:46PM 46.1000 -78.8167 203° Southwest 450 518 36,000  Level Toronto Center
01:47PM 46.0000 -78.8833 205° Southwest 450 518 36,000  Level Toronto Center
01:48PM 45.8833 -78.9667 206° Southwest 450 518 36,000  Level Toronto Center
01:49PM 45.7667 -79.0333 202° Southwest 450 518 36,000  Level Toronto Center
01:50PM 45.6500 -79.1000 202° Southwest 450 518 36,000  Level Toronto Center
01:51PM 45.5333 -79.1833 207° Southwest 450 518 36,000  Level Toronto Center
01:57PM 44.8952 -79.6034 203° Southwest 443 510 36,000  Level FlightAware ADS-B (EPWA / WAW)
01:58PM 44.8122 -79.6541 203° Southwest 440 506 36,000  Level FlightAware ADS-B (EPWA / WAW)
01:59PM 44.7161 -79.7122 203° Southwest 437 503 36,000  Level FlightAware ADS-B (EPWA / WAW)
01:59PM 44.6357 -79.7607 203° Southwest 435 501 36,000  Level FlightAware ADS-B (CYKF)
02:00PM 44.5590 -79.8131 210° Southwest 430 495 36,000  Level FlightAware ADS-B
02:01PM 44.5573 -79.8145 210° Southwest 430 495 36,000  Level FlightAware ADS-B
02:01PM 44.4466 -79.9151 213° Southwest 432 497 36,000  Level FlightAware ADS-B (EPWA / WAW)
02:02PM 44.3833 -79.9726 213° Southwest 434 499 36,000  Level FlightAware ADS-B (EPWA / WAW)
02:03PM 44.3107 -80.0377 213° Southwest 434 499 36,000  Level FlightAware ADS-B (EPWA / WAW)
02:03PM 44.2474 -80.0941 213° Southwest 433 498 36,000  Level FlightAware ADS-B (EPWA / WAW)
02:04PM 44.1682 -80.1647 213° Southwest 430 495 36,000  Level FlightAware ADS-B (EPWA / WAW)
02:05PM 44.0765 -80.2463 213° Southwest 431 496 36,000  Level FlightAware ADS-B (EPWA / WAW)
02:06PM 44.0064 -80.3085 213° Southwest 430 495 36,000  Level FlightAware ADS-B (EPWA / WAW)
02:06PM 43.9530 -80.3558 213° Southwest 427 491 36,000  Level FlightAware ADS-B (EPWA / WAW)
02:07PM 43.8910 -80.4105 213° Southwest 426 490 36,000  Level FlightAware ADS-B (EPWA / WAW)
02:07PM 43.8295 -80.4644 212° Southwest 425 489 36,000  Level FlightAware ADS-B (EPWA / WAW)
02:08PM 43.7236 -80.5571 212° Southwest 422 486 36,000  Level FlightAware ADS-B (CYKF)
02:09PM 43.6589 -80.6138 213° Southwest 419 482 36,000  Level FlightAware ADS-B (CZBA)
02:10PM 43.5572 -80.7024 212° Southwest 416 479 36,000  Level FlightAware ADS-B (EPWA / WAW)
02:11PM 43.4974 -80.7542 212° Southwest 414 476 36,000  Level FlightAware ADS-B (MDST / STI)
02:11PM 43.4383 -80.8054 212° Southwest 415 478 36,000  Level FlightAware ADS-B (EPWA / WAW)
02:12PM 43.3555 -80.8770 212° Southwest 416 479 36,000  Level FlightAware ADS-B (EPWA / WAW)
02:13PM 43.2941 -80.9298 212° Southwest 416 479 36,000  Level FlightAware ADS-B (EPWA / WAW)
02:14PM 43.2001 -81.0105 212° Southwest 416 479 36,000  Level FlightAware ADS-B (EPWA / WAW)
02:14PM 43.1383 -81.0633 212° Southwest 415 478 36,000  Level FlightAware ADS-B (CYKF)
02:15PM 43.0513 -81.1373 211° Southwest 414 476 36,000  Level FlightAware ADS-B (EPWA / WAW)
02:16PM 42.9608 -81.1954 205° Southwest 415 478 36,000  Level FlightAware ADS-B (EPWA / WAW)
02:17PM 42.8667 -81.2548 205° Southwest 416 479 36,000  Level FlightAware ADS-B (EPWA / WAW)
02:18PM 42.7986 -81.2969 204° Southwest 417 480 36,000  Level FlightAware ADS-B (EPWA / WAW)
02:19PM 42.6854 -81.3664 204° Southwest 416 479 36,000  Level FlightAware ADS-B (EPWA / WAW)
02:20PM 42.6421 -81.3929 204° Southwest 416 479 36,000  Level FlightAware ADS-B (EPWA / WAW)
02:20PM 42.5476 -81.4506 204° Southwest 417 480 36,000  Level FlightAware ADS-B (EPWA / WAW)
02:21PM 42.4809 -81.4912 204° Southwest 417 480 36,000  Level FlightAware ADS-B (EPWA / WAW)
02:22PM 42.4554 -81.5067 204° Southwest 418 481 36,000  Level FlightAware ADS-B (CYKF)
02:23PM 42.2935 -81.6049 204° Southwest 418 481 36,000  Level FlightAware ADS-B (EPWA / WAW)
02:25PM 42.0986 -81.7225 204° Southwest 415 478 36,000  Level Cleveland Center
02:26PM 41.9956 -81.7833 204° Southwest 409 471 36,000  Level Cleveland Center
02:27PM 41.8917 -81.8467 204° Southwest 406 467 36,000  Level Cleveland Center
02:28PM 41.7719 -81.9183 204° Southwest 405 466 36,000  Level Cleveland Center
02:29PM 41.6703 -81.9783 204° Southwest 401 461 36,000  Level Cleveland Center
02:30PM 41.5675 -82.0381 204° Southwest 401 461 36,000  Level Cleveland Center
02:31PM 41.4683 -82.0969 204° Southwest 394 453 36,000  Level Cleveland Center
02:32PM 41.3692 -82.1550 204° Southwest 391 450 36,000  Level Cleveland Center
02:33PM 41.2633 -82.1950 196° South 392 451 36,000  Level Cleveland Center
02:34PM 41.1397 -82.2411 196° South 394 453 36,000  Level Cleveland Center
02:35PM 41.0344 -82.2786 195° South 391 450 36,000  Level Cleveland Center
02:36PM 40.9319 -82.3136 194° South 383 441 36,000 300 Level Cleveland Center
02:41PM 40.5829 -82.4379 195° South 418 481 38,000 240 Climbing FlightAware ADS-B
02:43PM 40.1286 -82.5884 186° South 423 487 38,000  Level FlightAware ADS-B
02:44PM 40.0654 -82.5934 183° South 426 490 38,000  Level FlightAware ADS-B
02:44PM 40.0057 -82.5980 183° South 424 488 38,000  Level FlightAware ADS-B
02:45PM 39.9340 -82.6032 183° South 424 488 38,000  Level FlightAware ADS-B
02:46PM 39.8573 -82.6084 183° South 424 488 38,000  Level FlightAware ADS-B
02:46PM 39.7812 -82.6135 183° South 421 484 38,000  Level FlightAware ADS-B
02:47PM 39.7018 -82.6188 183° South 409 471 38,000  Level FlightAware ADS-B
02:47PM 39.6460 -82.6225 183° South 408 470 38,000  Level FlightAware ADS-B
02:48PM 39.5891 -82.6265 183° South 408 470 38,000  Level FlightAware ADS-B
02:48PM 39.5296 -82.6306 183° South 409 471 38,000  Level FlightAware ADS-B
02:49PM 39.4695 -82.6346 183° South 410 472 38,000  Level FlightAware ADS-B
02:50PM 39.3872 -82.6401 183° South 411 473 38,000  Level FlightAware ADS-B
02:50PM 39.3346 -82.6435 183° South 411 473 38,000  Level FlightAware ADS-B
02:51PM 39.2274 -82.6506 183° South 410 472 38,000  Level FlightAware ADS-B
02:52PM 39.1709 -82.6542 183° South 409 471 38,000  Level FlightAware ADS-B
02:52PM 39.0795 -82.6605 183° South 409 471 38,000  Level FlightAware ADS-B
02:53PM 39.0228 -82.6642 183° South 409 471 38,000  Level FlightAware ADS-B
02:54PM 38.9430 -82.6693 183° South 406 467 38,000  Level FlightAware ADS-B
02:54PM 38.8722 -82.6743 183° South 403 464 38,000 360 Level FlightAware ADS-B
02:55PM 38.7753 -82.6805 183° South 403 464 38,600 780 Climbing FlightAware ADS-B
02:56PM 38.7005 -82.6854 183° South 406 467 39,200 840 Climbing FlightAware ADS-B
02:56PM 38.6303 -82.6901 183° South 410 472 39,700 660 Climbing FlightAware ADS-B
02:57PM 38.5748 -82.6936 183° South 411 473 40,000 180 Climbing FlightAware ADS-B
02:58PM 38.4662 -82.7006 183° South 415 478 40,000  Level FlightAware ADS-B
02:59PM 38.4028 -82.7058 183° South 411 473 40,000  Level Indianapolis Center
03:00PM 38.2675 -82.7139 183° South 411 473 40,000  Level Indianapolis Center
03:01PM 38.1542 -82.7217 183° South 411 473 40,000  Level Indianapolis Center
03:02PM 38.0392 -82.7289 183° South 411 473 40,000  Level Indianapolis Center
03:03PM 37.9261 -82.7372 183° South 411 473 40,000  Level Indianapolis Center
03:04PM 37.8131 -82.7444 183° South 409 471 40,000  Level Indianapolis Center
03:05PM 37.6839 -82.7614 186° South 406 467 40,000  Level Indianapolis Center
03:06PM 37.5842 -82.8114 202° Southwest 388 447 40,000  Level Indianapolis Center
03:07PM 37.4931 -82.8739 209° Southwest 378 435 40,000  Level Indianapolis Center
03:08PM 37.4022 -82.9347 208° Southwest 375 432 40,000  Level Indianapolis Center
03:09PM 37.3103 -82.9933 207° Southwest 373 429 40,000  Level Indianapolis Center
03:10PM 37.2058 -83.0622 208° Southwest 369 425 40,000  Level Indianapolis Center
03:11PM 37.1158 -83.1214 208° Southwest 368 423 40,000  Level Indianapolis Center
03:12PM 37.0272 -83.1789 207° Southwest 365 420 40,000  Level Indianapolis Center
03:13PM 36.9392 -83.2361 207° Southwest 362 417 40,000 -360 Level Indianapolis Center
03:14PM 36.8361 -83.3019 207° Southwest 362 417 39,300 -840 Descending Indianapolis Center
03:15PM 36.7522 -83.3556 207° Southwest 347 399 38,300 -660 Descending Indianapolis Center
03:16PM 36.6694 -83.4086 207° Southwest 338 389 38,000 -180 Descending Indianapolis Center
03:17PM 36.5850 -83.4628 207° Southwest 338 389 38,000  Level Indianapolis Center
03:18PM 36.4919 -83.5217 207° Southwest 346 398 38,000  Level Indianapolis Center
03:19PM 36.4056 -83.5778 208° Southwest 346 398 38,000  Level Indianapolis Center
03:20PM 36.3181 -83.6333 207° Southwest 347 399 38,000  Level Indianapolis Center
03:21PM 36.2311 -83.6883 207° Southwest 348 400 38,000  Level Indianapolis Center
03:22PM 36.1256 -83.7550 207° Southwest 349 402 38,000  Level Indianapolis Center
03:23PM 36.0386 -83.8100 207° Southwest 350 403 38,000  Level Indianapolis Center
03:24PM 35.9508 -83.8653 207° Southwest 350 403 38,000  Level Indianapolis Center
03:26PM 35.8578 -83.9056 199° South 351 404 38,000  Level Indianapolis Center
03:27PM 35.7142 -83.9442 192° South 359 413 38,000  Level Atlanta Center
03:28PM 35.6139 -83.9672 191° South 359 413 38,000  Level Atlanta Center
03:29PM 35.5139 -83.9928 192° South 369 425 38,000  Level Atlanta Center
03:30PM 35.4117 -84.0158 190° South 374 430 38,000  Level Atlanta Center
03:31PM 35.3114 -84.0389 191° South 374 430 38,000  Level Atlanta Center
03:32PM 35.2092 -84.0642 191° South 374 430 38,000  Level Atlanta Center
03:33PM 35.1069 -84.0894 191° South 374 430 38,000  Level Atlanta Center
03:34PM 35.0025 -84.1122 190° South 374 430 38,000  Level Atlanta Center
03:35PM 34.9003 -84.1400 193° South 374 430 38,000  Level Atlanta Center
03:36PM 34.7981 -84.1628 190° South 374 430 38,000  Level Atlanta Center
03:37PM 34.6936 -84.1903 192° South 374 430 38,000  Level Atlanta Center
03:38PM 34.5936 -84.2053 187° South 368 423 38,000  Level Atlanta Center
03:39PM 34.4933 -84.2303 192° South 368 423 38,000  Level Atlanta Center
03:40PM 34.3911 -84.2578 193° South 373 429 38,000  Level Atlanta Center
03:41PM 34.2886 -84.2803 190° South 373 429 38,000  Level Atlanta Center
03:42PM 34.1967 -84.3025 191° South 373 429 38,000  Level Atlanta Center
03:43PM 34.0797 -84.3322 192° South 378 435 38,000  Level Atlanta Center
03:44PM 33.9817 -84.3569 192° South 373 429 38,000  Level Atlanta Center
03:45PM 33.8711 -84.3792 189° South 380 437 38,000  Level Atlanta Center
03:46PM 33.7686 -84.4036 191° South 380 437 38,000  Level Atlanta Center
03:47PM 33.6683 -84.4281 191° South 385 443 38,000  Level Atlanta Center
03:48PM 33.5578 -84.4378 184° South 390 449 38,000  Level Atlanta Center
03:49PM 33.4472 -84.4347 179° South 395 455 38,000  Level Atlanta Center
03:50PM 33.3386 -84.4342 180° South 400 460 38,000  Level Atlanta Center
03:51PM 33.2258 -84.4311 179° South 405 466 38,000  Level Atlanta Center
03:52PM 33.1278 -84.4333 181° South 398 458 38,000  Level Atlanta Center
03:53PM 33.0172 -84.4278 178° South 398 458 38,000  Level Atlanta Center
03:54PM 32.9067 -84.4247 179° South 403 464 38,000 -120 Level Atlanta Center
03:55PM 32.7958 -84.4267 181° South 398 458 37,800 -540 Descending Atlanta Center
03:56PM 32.6875 -84.4189 177° South 398 458 37,000 -420 Descending Atlanta Center
03:57PM 32.5808 -84.4161 179° South 398 458 37,000  Level Atlanta Center
03:58PM 32.4725 -84.4131 179° South 393 452 37,000  Level Atlanta Center
03:59PM 32.3681 -84.4103 179° South 387 445 37,000  Level Atlanta Center
04:10PM 31.1904 -84.2427 157° South 376 433 37,000  Level FlightAware ADS-B (KTLH)
04:11PM 31.0965 -84.1963 157° South 379 436 37,000 -120 Level FlightAware ADS-B (KTLH)
04:12PM 31.0377 -84.1676 157° South 380 437 36,900  Descending FlightAware ADS-B (KTLH)
04:13PM 30.9815 -84.1399 157° South 364 419 37,000 -360 Climbing FlightAware ADS-B (KTLH)
04:13PM 30.9208 -84.1102 157° South 355 409 36,500 -1,020 Descending FlightAware ADS-B (KTLH)
04:14PM 30.8713 -84.0857 157° South 340 391 35,800 -1,260 Descending FlightAware ADS-B (KTLH)
04:14PM 30.8215 -84.0615 158° South 345 397 35,100 -720 Descending FlightAware ADS-B (KTLH)
04:15PM 30.7591 -84.0317 158° South 376 433 35,000 -120 Descending FlightAware ADS-B (KTLH)
04:15PM 30.7093 -84.0076 157° South 390 449 35,000  Level FlightAware ADS-B (KTLH)
04:16PM 30.6583 -83.9826 157° South 392 451 35,000  Level FlightAware ADS-B (KTLH)
04:16PM 30.6102 -83.9591 157° South 390 449 35,000  Level FlightAware ADS-B (KTLH)
04:17PM 30.5585 -83.9339 157° South 390 449 35,000  Level FlightAware ADS-B (KTLH)
04:18PM 30.4954 -83.9031 157° South 389 448 35,000  Level FlightAware ADS-B (KTLH)
04:18PM 30.4540 -83.8831 157° South 389 448 35,000  Level FlightAware ADS-B (KTLH)
04:19PM 30.3911 -83.8528 157° South 390 449 35,000  Level FlightAware ADS-B (KTLH)
04:19PM 30.3471 -83.8316 157° South 389 448 35,000  Level FlightAware ADS-B (KTLH)
04:20PM 30.2799 -83.7991 157° South 391 450 35,000  Level FlightAware ADS-B (KTLH)
04:21PM 30.1921 -83.7568 157° South 394 453 35,000  Level FlightAware ADS-B (KTLH)
04:22PM 30.0645 -83.6955 157° South 395 455 35,000  Level FlightAware ADS-B (KTLH)
04:22PM 30.0256 -83.6753 157° South 392 451 35,000  Level Miami Center
04:23PM 29.9658 -83.6503 160° South 393 452 35,000  Level Jacksonville Center
04:24PM 29.8636 -83.6014 157° South 393 452 35,000  Level Jacksonville Center
04:25PM 29.7617 -83.5528 158° South 393 452 35,000  Level Jacksonville Center
04:26PM 29.6575 -83.5019 157° South 393 452 35,000 -180 Level Jacksonville Center
04:27PM 29.5556 -83.4561 159° South 393 452 34,700 -600 Descending Jacksonville Center
04:28PM 29.4556 -83.4078 157° South 388 447 33,800 -840 Descending Jacksonville Center
04:29PM 29.3469 -83.3572 158° South 400 460 33,100 -120 Descending Jacksonville Center
04:35PM 28.7012 -83.0509 158° South 405 466 33,000 -60 Descending FlightAware ADS-B (KMCO)
04:36PM 28.6315 -83.0185 158° South 411 473 33,000  Level FlightAware ADS-B (KMCO)
04:38PM 28.4158 -82.9184 158° South 402 463 33,000  Level FlightAware ADS-B (KMCO)
04:38PM 28.3657 -82.8952 158° South 398 458 33,000  Level FlightAware ADS-B (KMCO)
04:39PM 28.2840 -82.8574 158° South 400 460 33,000  Level FlightAware ADS-B (KMCO)
04:40PM 28.2159 -82.8260 158° South 401 461 33,000  Level FlightAware ADS-B (KMCO)
04:41PM 28.1165 -82.7802 158° South 405 466 33,000  Level FlightAware ADS-B (KMCO)
04:41PM 28.0611 -82.7546 158° South 405 466 33,000  Level FlightAware ADS-B (KMCO)
04:42PM 27.9563 -82.7066 158° South 409 471 33,000  Level FlightAware ADS-B (KSFB)
04:42PM 27.9443 -82.7010 158° South 408 470 33,000  Level FlightAware ADS-B (KMCO)
04:43PM 27.8908 -82.6731 150° Southeast 422 486 33,000  Level FlightAware ADS-B (KSFB)
04:44PM 27.8052 -82.6158 149° Southeast 419 482 33,000  Level FlightAware ADS-B (KMCO)
04:44PM 27.7526 -82.5806 149° Southeast 421 484 33,000  Level FlightAware ADS-B (KMCO)
04:45PM 27.6680 -82.5243 150° Southeast 421 484 33,000  Level FlightAware ADS-B (KSFB)
04:46PM 27.6171 -82.4904 149° Southeast 422 486 33,000  Level FlightAware ADS-B (KSFB)
04:46PM 27.5530 -82.4478 149° Southeast 426 490 33,000  Level FlightAware ADS-B (KMCO)
04:47PM 27.4936 -82.4083 149° Southeast 426 490 33,000  Level FlightAware ADS-B (KSFB)
04:47PM 27.4242 -82.3622 150° Southeast 425 489 33,000  Level FlightAware ADS-B (KSFB)
04:48PM 27.3658 -82.3236 150° Southeast 425 489 33,000  Level FlightAware ADS-B (KMCO)
04:49PM 27.2955 -82.2772 150° Southeast 427 491 33,000  Level FlightAware ADS-B (KMCO)
04:49PM 27.2257 -82.2313 150° Southeast 428 493 33,000  Level FlightAware ADS-B (KSFB)
04:50PM 27.1625 -82.1897 150° Southeast 428 493 33,000  Level FlightAware ADS-B (KMCO)
04:51PM 27.0983 -82.1474 150° Southeast 434 499 33,000 -540 Level FlightAware ADS-B (KMCO)
04:52PM 26.9571 -82.0543 150° Southeast 403 464 32,000 -840 Descending FlightAware ADS-B (KMCO)
04:53PM 26.9206 -82.0305 150° Southeast 398 458 31,500 -780 Descending FlightAware ADS-B (KMCO)
04:53PM 26.8357 -81.9750 150° Southeast 395 455 31,000 -420 Descending FlightAware ADS-B (KMCO)
04:54PM 26.7825 -81.9404 150° Southeast 404 465 31,000  Level FlightAware ADS-B (KMCO)
04:55PM 26.7227 -81.9014 150° Southeast 406 467 31,000  Level FlightAware ADS-B (KMCO)
04:55PM 26.6536 -81.8562 150° Southeast 401 461 31,000  Level FlightAware ADS-B (KMCO)
04:57PM 26.5236 -81.7757 156° South 410 472 31,000  Level FlightAware ADS-B (KMCO)
04:57PM 26.4341 -81.7402 161° South 412 474 31,000  Level FlightAware ADS-B (KMCO)
04:58PM 26.3789 -81.7188 161° South 409 471 31,000  Level FlightAware ADS-B (KMCO)
04:58PM 26.3267 -81.6987 161° South 406 467 31,000  Level FlightAware ADS-B (KMCO)
04:59PM 26.2656 -81.6755 161° South 409 471 31,000  Level FlightAware ADS-B (KMCO)
05:00PM 26.1962 -81.6492 161° South 411 473 31,000  Level FlightAware ADS-B (KMCO)
05:01PM 26.0585 -81.5972 161° South 411 473 31,000  Level FlightAware ADS-B (KMCO)
05:02PM 25.9819 -81.5684 161° South 423 487 31,000  Level FlightAware ADS-B (KMCO)
05:02PM 25.8882 -81.5332 161° South 427 491 31,000  Level FlightAware ADS-B (KMCO)
05:03PM 25.8082 -81.5031 161° South 429 494 31,000  Level FlightAware ADS-B (KMCO)
05:04PM 25.7402 -81.4776 161° South 430 495 31,000  Level FlightAware ADS-B (KMCO)
05:04PM 25.6750 -81.4532 161° South 431 496 31,000  Level FlightAware ADS-B (KMCO)
05:05PM 25.5794 -81.4174 161° South 430 495 31,000  Level FlightAware ADS-B
05:06PM 25.5251 -81.3970 161° South 430 495 31,000  Level FlightAware ADS-B
05:07PM 25.3900 -81.3467 161° South 428 493 31,000  Level Miami Center
05:08PM 25.2781 -81.3050 161° South 428 493 31,000 -120 Level Miami Center
05:09PM 25.1403 -81.2539 161° South 434 499 30,800 -480 Descending Miami Center
05:10PM 25.0286 -81.2114 161° South 431 496 30,000 -780 Descending Miami Center
05:11PM 24.9197 -81.1717 162° South 418 481 29,200 -540 Descending Miami Center
05:12PM 24.8117 -81.1311 161° South 416 479 29,000 -120 Descending Miami Center
05:13PM 24.7011 -81.1072 169° South 409 471 29,000 -60 Level Miami Center
05:14PM 24.5703 -81.1172 184° South 394 453 28,900 -540 Descending Miami Center
05:15PM 24.4642 -81.1311 187° South 385 443 28,000 -960 Descending Miami Center
05:16PM 24.3639 -81.1497 190° South 370 426 26,900 -1,020 Descending Miami Center
05:17PM 24.2625 -81.1681 189° South 370 426 25,900 -900 Descending Miami Center
05:18PM 24.1619 -81.1864 189° South 369 425 25,100 -480 Descending Miami Center
05:19PM 24.0467 -81.2083 190° South 355 409 25,000 -240 Descending Miami Center
05:20PM 23.9547 -81.2319 193° South 344 396 24,700 -300 Descending Miami Center
05:22PM 23.8834 -81.3351 233° Southwest  Level FlightAware Approximate
05:29PM 23.3305 -81.9887 228° Southwest  Level FlightAware Approximate
05:30PM 23.2526 -82.0828 226° Southwest  Level FlightAware Approximate
05:31PM 23.1723 -82.1745 226° Southwest  Level FlightAware Approximate
05:32PM 23.0879 -82.2575 241° Southwest  Level FlightAware Approximate
05:33PM 23.0130 -82.3537 223° Southwest  Level FlightAware Approximate
05:34PM 22.9667 -82.4000 223° Southwest  Level FlightAware Approximate
05:35PM 22.9891 -82.4091 223° Southwest  Level Estimated
05:36PM 22.9891 -82.4091 223° Southwest  Level Estimated
05:37PM 22.9891 -82.4091 223° Southwest  Level Estimated
05:38PM 22.9891 -82.4091 223° Southwest  Level Estimated
05:39PM 22.9891 -82.4091 223° Southwest  Level Estimated
05:40PM 22.9891 -82.4091 223° Southwest  Level Estimated
05:41PM 22.9891 -82.4091 223° Southwest  Level Estimated
05:42PM 22.9891 -82.4091 223° Southwest  Level Estimated
05:43PM 22.9891 -82.4091 223° Southwest  Level Estimated
05:44PM 22.9891 -82.4091 223° Southwest  Level Estimated
05:45PM 22.9891 -82.4091 223° Southwest  Level Estimated
05:46PM 22.9891 -82.4091 223° Southwest  Level Estimated
05:47PM 22.9891 -82.4091 223° Southwest  Level Estimated
05:48PM 22.9891 -82.4091 223° Southwest  Level Estimated
05:49PM 22.9891 -82.4091 223° Southwest  Level Estimated
05:50PM 22.9891 -82.4091 223° Southwest  Level Estimated
05:51PM 22.9891 -82.4091 223° Southwest  Level Estimated
05:52PM 22.9891 -82.4091 223° Southwest  Level Estimated
05:53PM 22.9891 -82.4091 223° Southwest  Level Estimated
05:54PM 22.9891 -82.4091 223° Southwest  Level Estimated
05:55PM 22.9891 -82.4091 223° Southwest  Level Estimated